Time;durP1;ratioP1;P1;durP2;ratioP2;P2;SDS_P1;SDS_P2;PMS_P1;PMS_P2;Temp;Humidity;BMP_temperature;BMP_pressure;BME280_temperature;BME280_humidity;BME280_pressure;Samples;Min_cycle;Max_cycle;Signal;HPM_P1;HPM_P2
2023/11/28 00:02:06;;;;;;;0.10;0.10;;;;;;;4.89;59.45;98013.50;4235700;33;20146;-93
2023/11/28 00:04:32;;;;;;;0.10;0.10;;;;;;;5.09;59.46;98010.16;4235817;33;20093;-93
2023/11/28 00:06:58;;;;;;;0.10;0.10;;;;;;;5.12;59.46;98010.06;4259399;33;20158;-91
2023/11/28 00:09:24;;;;;;;3.83;1.48;;;;;;;4.90;59.45;98016.91;4258824;33;20101;-91
2023/11/28 00:11:51;;;;;;;0.68;0.68;;;;;;;4.98;59.45;98006.34;4246983;33;20158;-90
2023/11/28 00:15:07;;;;;;;0.15;0.13;;;;;;;5.10;59.46;98009.28;4235334;33;20093;-92
2023/11/28 00:17:32;;;;;;;0.22;0.22;;;;;;;5.08;59.46;97999.91;4247799;33;20071;-92
2023/11/28 00:19:58;;;;;;;0.10;0.10;;;;;;;5.00;59.45;98002.78;4235782;33;20167;-91
2023/11/28 00:22:24;;;;;;;2.08;1.75;;;;;;;4.96;59.45;97998.63;4236331;33;20054;-92
2023/11/28 00:24:49;;;;;;;0.68;0.68;;;;;;;5.06;59.46;97999.97;4236093;33;20155;-93
2023/11/28 00:28:11;;;;;;;0.75;0.68;;;;;;;5.00;59.45;97996.78;4247358;33;20173;-93
2023/11/28 00:30:55;;;;;;;2.08;1.67;;;;;;;4.96;59.45;97988.31;4247633;33;20458;-92
2023/11/28 00:33:21;;;;;;;2.08;0.88;;;;;;;5.05;59.46;97982.81;4235370;33;20136;-93
2023/11/28 00:35:46;;;;;;;0.22;0.22;;;;;;;5.10;59.47;97975.75;4236101;33;20423;-92
2023/11/28 00:38:12;;;;;;;2.62;1.27;;;;;;;5.00;59.45;97973.59;4235460;33;20129;-92
2023/11/28 00:40:39;;;;;;;0.70;0.65;;;;;;;5.18;59.47;97973.69;4235860;33;20110;-93
2023/11/28 00:43:11;;;;;;;1.90;1.80;;;;;;;5.10;59.46;97970.59;4247260;33;20112;-92
2023/11/28 00:45:38;;;;;;;0.57;0.57;;;;;;;5.12;59.46;97971.38;4235457;33;20116;-92
2023/11/28 00:48:05;;;;;;;3.05;2.20;;;;;;;5.05;59.46;97963.94;4235466;33;20110;-91
2023/11/28 00:50:31;;;;;;;0.30;0.30;;;;;;;5.01;59.46;97960.63;4235317;33;20742;-91
2023/11/28 00:52:56;;;;;;;2.75;1.12;;;;;;;5.26;59.47;97954.53;4235165;33;20094;-93
2023/11/28 00:55:23;;;;;;;2.75;1.95;;;;;;;5.27;59.47;97945.88;4235454;33;20398;-93
2023/11/28 00:57:49;;;;;;;0.82;0.82;;;;;;;5.04;59.46;97946.78;4235457;33;20389;-92
2023/11/28 01:00:15;;;;;;;0.13;0.13;;;;;;;5.13;59.46;97942.09;4235126;33;20147;-92
2023/11/28 01:02:40;;;;;;;1.87;1.55;;;;;;;5.20;59.47;97935.81;4234379;33;20093;-90
2023/11/28 01:05:08;;;;;;;0.15;0.15;;;;;;;5.19;59.47;97931.53;4245761;33;20158;-91
2023/11/28 01:07:34;;;;;;;10.80;0.90;;;;;;;5.04;59.46;97918.41;4234198;33;20105;-90
2023/11/28 01:09:59;;;;;;;0.73;0.73;;;;;;;5.30;59.47;97909.66;4245976;33;20478;-89
2023/11/28 01:12:24;;;;;;;1.42;1.33;;;;;;;5.17;59.47;97910.13;4245372;33;20121;-89
2023/11/28 01:14:50;;;;;;;3.92;2.22;;;;;;;5.23;59.46;97902.16;4222450;33;20146;-90
2023/11/28 01:17:15;;;;;;;0.10;0.10;;;;;;;5.24;59.47;97901.25;4233780;33;20180;-89
2023/11/28 01:19:41;;;;;;;0.40;0.40;;;;;;;5.24;59.46;97892.69;4233892;33;20135;-91
2023/11/28 01:22:11;;;;;;;0.15;0.15;;;;;;;5.22;59.46;97887.59;4234040;33;20184;-90
2023/11/28 01:24:36;;;;;;;;;;;;;;;5.21;59.46;97882.50;4234254;33;20167;-91
2023/11/28 01:27:02;;;;;;;0.00;0.00;;;;;;;5.17;59.47;97878.34;4234032;33;20013;-90
2023/11/28 01:29:27;;;;;;;0.62;0.62;;;;;;;5.09;59.46;97876.06;4233550;33;20114;-90
2023/11/28 01:31:52;;;;;;;3.35;1.62;;;;;;;5.27;59.47;97861.59;4246071;33;20134;-91
2023/11/28 01:34:18;;;;;;;0.35;0.35;;;;;;;5.25;59.48;97860.84;4234158;33;20117;-91
2023/11/28 01:36:43;;;;;;;0.98;0.82;;;;;;;5.27;59.47;97856.44;4233791;33;20146;-91
2023/11/28 01:39:09;;;;;;;1.20;0.98;;;;;;;5.08;59.45;97846.03;4245638;33;20424;-90
2023/11/28 01:41:35;;;;;;;1.20;1.15;;;;;;;5.27;59.47;97842.72;4233804;33;20158;-92
2023/11/28 01:44:07;;;;;;;4.07;2.87;;;;;;;5.40;59.48;97838.69;4235110;33;20169;-92
2023/11/28 01:46:34;;;;;;;1.00;1.00;;;;;;;5.35;59.47;97832.91;4236842;33;20738;-93
2023/11/28 01:50:22;;;;;;;1.10;1.05;;;;;;;5.28;59.47;97836.66;4248549;33;20118;-92
2023/11/28 01:52:25;;;;;;;2.10;0.73;;;;;;;5.23;59.46;97826.53;4248896;33;20112;-91
2023/11/28 01:54:51;;;;;;;0.82;0.77;;;;;;;5.21;59.46;97829.16;4236816;33;20146;-93
2023/11/28 01:57:16;;;;;;;0.47;0.47;;;;;;;5.38;59.47;97819.88;4236783;33;20169;-92
2023/11/28 01:59:42;;;;;;;0.00;0.00;;;;;;;5.29;59.46;97812.53;4237003;33;20149;-92
2023/11/28 02:02:08;;;;;;;0.85;0.85;;;;;;;5.39;59.48;97806.06;4236823;33;20148;-93
2023/11/28 02:04:33;;;;;;;2.03;1.85;;;;;;;5.46;59.49;97798.03;4236632;33;20706;-92
2023/11/28 02:06:59;;;;;;;1.17;1.08;;;;;;;5.43;59.48;97786.97;4236725;33;20132;-92
2023/11/28 02:09:25;;;;;;;2.15;2.05;;;;;;;5.55;59.49;97794.19;4236507;33;20151;-93
2023/11/28 02:11:50;;;;;;;0.52;0.52;;;;;;;5.60;59.48;97776.78;4236348;33;20533;-90
2023/11/28 02:14:17;;;;;;;1.15;0.95;;;;;;;5.47;59.48;97773.91;4235894;33;20141;-91
2023/11/28 02:16:42;;;;;;;1.60;0.82;;;;;;;5.52;59.48;97766.78;4236128;33;20723;-90
2023/11/28 02:19:07;;;;;;;0.40;0.40;;;;;;;5.60;59.48;97753.53;4235739;33;20105;-90
2023/11/28 02:21:33;;;;;;;1.30;1.20;;;;;;;5.53;59.49;97757.31;4235911;33;20121;-90
2023/11/28 02:23:58;;;;;;;0.60;0.60;;;;;;;5.65;59.49;97756.75;4259464;33;20234;-90
2023/11/28 02:26:25;;;;;;;3.40;1.42;;;;;;;5.66;59.49;97747.25;4235821;33;20150;-91
2023/11/28 02:28:51;;;;;;;0.20;0.20;;;;;;;5.63;59.49;97745.66;4261868;33;20118;-90
2023/11/28 02:31:16;;;;;;;0.10;0.10;;;;;;;5.68;59.50;97736.00;4247674;33;20128;-90
2023/11/28 02:34:00;;;;;;;0.43;0.43;;;;;;;5.75;59.49;97729.63;4235981;33;20131;-88
2023/11/28 02:36:27;;;;;;;1.50;1.15;;;;;;;5.61;59.49;97732.00;4235511;33;20193;-90
2023/11/28 02:38:53;;;;;;;0.55;0.43;;;;;;;5.67;59.49;97729.13;4259687;33;20800;-90
2023/11/28 02:41:18;;;;;;;1.65;1.45;;;;;;;5.73;59.49;97728.03;4247481;33;20125;-91
2023/11/28 02:43:44;;;;;;;1.35;1.25;;;;;;;5.71;59.50;97716.94;4247687;33;20168;-92
2023/11/28 02:46:09;;;;;;;2.28;1.35;;;;;;;5.74;59.49;97715.06;4235876;33;20156;-91
2023/11/28 02:48:35;;;;;;;4.28;1.25;;;;;;;5.77;59.50;97714.91;4259831;33;20185;-92
2023/11/28 02:51:00;;;;;;;0.98;0.90;;;;;;;5.78;59.50;97705.44;4247961;33;20094;-91
2023/11/28 02:53:25;;;;;;;0.10;0.10;;;;;;;5.83;59.50;97708.63;4236230;33;20449;-91
2023/11/28 02:55:51;;;;;;;1.08;0.93;;;;;;;5.75;59.49;97714.16;4246865;33;20106;-91
2023/11/28 02:58:16;;;;;;;1.70;1.60;;;;;;;5.93;59.51;97699.59;4235382;33;20110;-91
2023/11/28 03:00:42;;;;;;;1.15;1.10;;;;;;;6.05;59.51;97693.88;4247538;33;20094;-91
2023/11/28 03:03:07;;;;;;;0.93;0.82;;;;;;;5.93;59.51;97691.03;4248094;33;20124;-92
2023/11/28 03:05:33;;;;;;;0.40;0.40;;;;;;;5.90;59.51;97691.97;4236346;33;20803;-92
2023/11/28 03:07:58;;;;;;;0.65;0.65;;;;;;;5.91;59.51;97685.06;4247294;33;20149;-90
2023/11/28 03:10:23;;;;;;;0.62;0.60;;;;;;;6.10;59.52;97685.91;4223636;33;20126;-92
2023/11/28 03:12:49;;;;;;;0.30;0.30;;;;;;;5.98;59.50;97689.06;4235656;33;20153;-91
2023/11/28 03:15:14;;;;;;;0.22;0.22;;;;;;;6.03;59.51;97685.34;4247374;33;20153;-90
2023/11/28 03:17:40;;;;;;;1.52;1.42;;;;;;;6.09;59.52;97677.31;4247245;33;20098;-90
2023/11/28 03:20:06;;;;;;;0.85;0.85;;;;;;;6.21;59.53;97670.75;4235470;33;20170;-90
2023/11/28 03:22:32;;;;;;;0.20;0.20;;;;;;;6.15;59.52;97673.59;4259088;33;20097;-90
2023/11/28 03:25:04;;;;;;;0.30;0.30;;;;;;;6.18;59.52;97673.47;4247231;33;20149;-90
2023/11/28 03:27:30;;;;;;;3.17;1.60;;;;;;;6.23;59.53;97670.66;4247135;33;20118;-91
2023/11/28 03:29:55;;;;;;;0.65;0.52;;;;;;;6.23;59.53;97666.34;4237079;33;20165;-90
2023/11/28 03:32:23;;;;;;;0.50;0.50;;;;;;;6.15;59.52;97658.97;4226676;33;20157;-92
2023/11/28 03:34:48;;;;;;;0.37;0.37;;;;;;;6.01;59.51;97670.84;4235936;33;20182;-91
2023/11/28 03:37:13;;;;;;;1.27;0.85;;;;;;;6.23;59.53;97650.84;4235264;33;20154;-91
2023/11/28 03:39:41;;;;;;;3.28;0.55;;;;;;;6.27;59.52;97649.78;4259006;33;20157;-91
2023/11/28 03:42:32;;;;;;;0.10;0.10;;;;;;;6.21;59.53;97657.00;4247260;33;20093;-91
2023/11/28 03:44:58;;;;;;;0.13;0.13;;;;;;;6.39;59.53;97648.34;4235294;33;20480;-91
2023/11/28 03:47:23;;;;;;;0.00;0.00;;;;;;;6.15;59.52;97653.78;4235377;33;20220;-90
2023/11/28 03:49:49;;;;;;;4.57;2.53;;;;;;;6.19;59.52;97654.47;4258881;33;20106;-90
2023/11/28 03:52:14;;;;;;;1.23;1.12;;;;;;;6.32;59.53;97645.22;4258501;33;20137;-89
2023/11/28 03:54:39;;;;;;;0.75;0.75;;;;;;;6.38;59.53;97642.31;4247235;33;20425;-92
2023/11/28 03:57:05;;;;;;;0.28;0.28;;;;;;;6.35;59.52;97634.72;4235115;33;20149;-90
2023/11/28 03:59:30;;;;;;;0.35;0.35;;;;;;;6.44;59.54;97636.03;4223478;33;20202;-90
2023/11/28 04:01:56;;;;;;;0.65;0.65;;;;;;;6.42;59.53;97630.13;4235016;33;20106;-90
2023/11/28 04:04:21;;;;;;;0.82;0.82;;;;;;;6.34;59.53;97630.47;4246442;33;21201;-90
2023/11/28 04:06:47;;;;;;;0.30;0.30;;;;;;;6.22;59.53;97633.66;4234975;33;20177;-89
2023/11/28 04:09:12;;;;;;;3.42;1.55;;;;;;;6.40;59.53;97626.78;4234906;33;20101;-90
2023/11/28 04:11:37;;;;;;;0.50;0.50;;;;;;;6.26;59.52;97622.28;4235016;33;20476;-90
2023/11/28 04:14:03;;;;;;;1.85;0.93;;;;;;;6.21;59.53;97621.66;4235208;33;20157;-90
2023/11/28 04:16:29;;;;;;;1.08;0.52;;;;;;;6.22;59.53;97618.16;4258471;33;20153;-91
2023/11/28 04:18:54;;;;;;;3.42;2.17;;;;;;;6.24;59.52;97613.75;4234721;33;20153;-90
2023/11/28 04:21:20;;;;;;;0.20;0.20;;;;;;;6.34;59.53;97608.97;4234876;33;20106;-90
2023/11/28 04:23:46;;;;;;;2.00;1.80;;;;;;;6.40;59.53;97606.09;4246862;33;20134;-91
2023/11/28 04:26:12;;;;;;;9.75;2.55;;;;;;;6.41;59.53;97605.19;4234889;33;20109;-90
2023/11/28 04:28:37;;;;;;;0.03;0.03;;;;;;;6.40;59.53;97595.75;4246817;33;20115;-90
2023/11/28 04:31:03;;;;;;;0.00;0.00;;;;;;;6.30;59.52;97597.94;4235130;33;20140;-90
2023/11/28 04:33:29;;;;;;;1.27;0.85;;;;;;;6.34;59.53;97596.03;4247473;33;20464;-90
2023/11/28 04:35:55;;;;;;;0.47;0.47;;;;;;;6.31;59.53;97596.19;4246772;33;20117;-90
2023/11/28 04:38:20;;;;;;;0.17;0.17;;;;;;;6.41;59.53;97592.28;4234521;33;20393;-90
2023/11/28 04:40:45;;;;;;;3.62;2.42;;;;;;;6.18;59.52;97595.16;4234796;33;20149;-89
2023/11/28 04:43:11;;;;;;;0.82;0.75;;;;;;;6.28;59.53;97592.03;4258130;33;20218;-90
2023/11/28 04:45:37;;;;;;;5.07;1.83;;;;;;;6.31;59.53;97580.69;4246257;33;20152;-90
2023/11/28 04:48:02;;;;;;;0.40;0.40;;;;;;;6.35;59.52;97580.47;4257825;33;21778;-91
2023/11/28 04:50:28;;;;;;;1.62;0.70;;;;;;;6.25;59.52;97588.75;4234836;33;20444;-90
2023/11/28 04:52:54;;;;;;;13.18;2.33;;;;;;;6.27;59.52;97579.19;4246288;33;20117;-91
2023/11/28 04:55:19;;;;;;;1.45;1.35;;;;;;;6.31;59.53;97575.53;4258651;33;20459;-91
2023/11/28 04:57:45;;;;;;;2.92;0.82;;;;;;;6.40;59.53;97573.34;4234666;33;20128;-91
2023/11/28 05:00:11;;;;;;;0.57;0.57;;;;;;;6.37;59.53;97565.72;4234742;33;20155;-91
2023/11/28 05:02:36;;;;;;;1.15;1.00;;;;;;;6.23;59.53;97557.84;4234441;33;20483;-90
2023/11/28 05:05:03;;;;;;;1.85;0.73;;;;;;;6.22;59.53;97563.06;4234370;33;20500;-89
2023/11/28 05:15:20;;;;;;;0.25;0.25;;;;;;;6.34;59.53;97552.13;4170739;34;20116;-95
2023/11/28 05:17:46;;;;;;;1.52;1.00;;;;;;;6.36;59.53;97548.53;4207668;33;20114;-91
2023/11/28 05:20:12;;;;;;;0.25;0.25;;;;;;;6.40;59.53;97550.09;4236268;33;20141;-92
2023/11/28 05:22:40;;;;;;;0.70;0.70;;;;;;;6.43;59.54;97543.94;4260617;33;20268;-94
2023/11/28 05:25:06;;;;;;;1.17;1.08;;;;;;;6.47;59.54;97535.09;4237223;33;20118;-93
2023/11/28 05:27:31;;;;;;;0.25;0.25;;;;;;;6.35;59.54;97540.88;4225454;33;20153;-93
2023/11/28 05:29:57;;;;;;;2.50;1.73;;;;;;;6.46;59.54;97538.59;4225527;33;20150;-93
2023/11/28 05:32:22;;;;;;;0.32;0.32;;;;;;;6.39;59.53;97530.34;4237451;33;20104;-93
2023/11/28 05:34:48;;;;;;;3.70;1.83;;;;;;;6.49;59.53;97538.44;4249238;33;20152;-92
2023/11/28 05:37:13;;;;;;;0.80;0.80;;;;;;;6.52;59.54;97527.94;4232589;33;20127;-92
2023/11/28 05:39:41;;;;;;;0.00;0.00;;;;;;;6.54;59.54;97525.28;4223600;33;20098;-93
2023/11/28 05:42:30;;;;;;;3.17;2.05;;;;;;;6.37;59.53;97524.37;4221274;33;20094;-92
2023/11/28 05:44:56;;;;;;;0.68;0.68;;;;;;;6.55;59.54;97524.37;4227843;33;20153;-93
2023/11/28 05:47:30;;;;;;;0.10;0.10;;;;;;;6.53;59.54;97521.03;4223445;33;20110;-93
2023/11/28 05:49:56;;;;;;;1.60;1.52;;;;;;;6.48;59.54;97518.69;4223278;33;20460;-94
2023/11/28 05:52:25;;;;;;;0.37;0.37;;;;;;;6.42;59.54;97517.25;4223446;33;20133;-94
2023/11/28 05:54:50;;;;;;;0.43;0.43;;;;;;;6.57;59.54;97514.78;4223046;33;20122;-92
2023/11/28 05:57:28;;;;;;;;;;;;;;;;;;;;;
2023/11/28 06:00:35;;;;;;;;;;;;;;;;;;;;;
2023/11/28 06:11:39;;;;;;;0.05;0.05;;;;;;;6.50;59.53;97508.25;4192614;34;20131;-94
2023/11/28 06:25:26;;;;;;;;;;;;;;;;;;;;;
2023/11/28 06:31:23;;;;;;;1.85;0.88;;;;;;;6.36;59.53;97509.78;4085479;35;20110;-95
2023/11/28 15:19:02;;;;;;;;;;;;;;;;;;;;;
2023/11/28 15:22:47;;;;;;;;;;;;;;;;;;;;;
2023/11/28 15:25:51;;;;;;;0.45;0.45;;;;;;;6.65;59.54;97397.16;5377871;26;20028;-96
2023/11/28 15:31:56;;;;;;;0.28;0.20;;;;;;;6.64;59.54;97398.09;5367227;26;20067;-95
2023/11/28 15:34:49;;;;;;;;;;;;;;;;;;;;;
2023/11/28 15:37:23;;;;;;;1.20;0.93;;;;;;;6.33;59.52;97398.84;5382866;26;35631;-96
2023/11/28 15:43:03;;;;;;;;;;;;;;;;;;;;;
2023/11/28 15:46:20;;;;;;;0.47;0.37;;;;;;;6.52;59.54;97414.22;5381012;26;37291;-96
2023/11/28 15:49:09;;;;;;;1.15;1.00;;;;;;;6.37;59.53;97415.03;5394931;26;20069;-96
2023/11/28 15:51:45;;;;;;;0.40;0.40;;;;;;;6.20;59.53;97423.66;5380879;26;20616;-96
2023/11/28 15:54:53;;;;;;;0.10;0.10;;;;;;;6.01;59.51;97423.75;5358474;26;20122;-96
2023/11/28 15:57:34;;;;;;;;;;;;;;;;;;;;;
2023/11/28 16:00:39;;;;;;;0.65;0.65;;;;;;;6.02;59.51;97434.94;5397424;26;34866;-96
2023/11/28 16:06:47;;;;;;;1.55;1.45;;;;;;;6.08;59.52;97438.03;5386606;26;20031;-96
2023/11/28 16:09:18;;;;;;;0.52;0.52;;;;;;;6.10;59.52;97449.13;5376510;26;20043;-96
2023/11/28 16:11:46;;;;;;;0.75;0.73;;;;;;;6.12;59.51;97446.44;5357986;26;20043;-96
2023/11/28 16:14:55;;;;;;;0.10;0.10;;;;;;;6.02;59.51;97448.69;5357245;26;20082;-96
2023/11/28 16:17:33;;;;;;;;;;;;;;;;;;;;;
2023/11/28 16:20:06;;;;;;;0.00;0.00;;;;;;;6.10;59.52;97454.28;5394753;26;35687;-96
2023/11/28 16:22:50;;;;;;;1.73;1.27;;;;;;;6.09;59.52;97452.59;5358072;26;20060;-96
2023/11/28 16:25:53;;;;;;;1.55;1.45;;;;;;;5.89;59.50;97460.47;5377937;26;20063;-95
2023/11/28 16:28:22;;;;;;;1.75;1.65;;;;;;;5.76;59.49;97456.84;5378045;26;20134;-95
2023/11/28 16:30:52;;;;;;;0.52;0.52;;;;;;;5.75;59.49;97455.19;5357250;26;20059;-95
2023/11/28 16:33:20;;;;;;;0.20;0.20;;;;;;;5.75;59.49;97455.19;5357431;26;20344;-93
2023/11/28 16:35:51;;;;;;;0.30;0.30;;;;;;;5.74;59.49;97461.25;5356871;26;20079;-96
2023/11/28 16:38:26;;;;;;;1.65;1.55;;;;;;;5.79;59.50;97457.53;5356278;26;20067;-96
2023/11/28 16:40:57;;;;;;;0.65;0.65;;;;;;;5.78;59.50;97455.87;5391517;26;20034;-96
2023/11/28 16:43:46;;;;;;;0.77;0.68;;;;;;;5.85;59.51;97461.56;5356267;26;20047;-95
2023/11/28 16:46:30;;;;;;;0.68;0.68;;;;;;;5.80;59.50;97472.09;5371996;26;20063;-95
2023/11/28 16:49:05;;;;;;;0.00;0.00;;;;;;;5.83;59.51;97477.13;5358752;26;20698;-96
2023/11/28 16:51:33;;;;;;;0.40;0.40;;;;;;;5.79;59.50;97478.19;5358339;26;20081;-96
2023/11/28 16:53:59;;;;;;;0.55;0.55;;;;;;;5.97;59.51;97473.91;5355162;26;20096;-96
2023/11/28 16:56:42;;;;;;;0.17;0.17;;;;;;;5.92;59.50;97477.63;5375250;26;20067;-96
2023/11/28 16:59:26;;;;;;;;;;;;;;;;;;;;;
2023/11/28 17:04:54;;;;;;;0.30;0.30;;;;;;;5.55;59.49;97490.53;5385587;26;20114;-95
2023/11/28 17:07:20;;;;;;;1.15;1.08;;;;;;;5.53;59.49;97500.09;5375220;26;20124;-96
2023/11/28 17:09:48;;;;;;;1.23;1.12;;;;;;;5.44;59.47;97500.53;5357415;26;20118;-95
2023/11/28 17:12:47;;;;;;;;;;;;;;;;;;;;;
2023/11/28 17:15:26;;;;;;;;;;;;;;;;;;;;;
2023/11/28 17:18:02;;;;;;;0.00;0.00;;;;;;;5.23;59.46;97517.03;5380301;26;35664;-96
2023/11/28 17:21:11;;;;;;;0.00;0.00;;;;;;;5.13;59.46;97520.91;5395000;26;20058;-96
2023/11/28 17:24:18;;;;;;;0.23;0.23;;;;;;;5.16;59.47;97526.75;5392755;26;20039;-95
2023/11/28 17:34:44;;;;;;;;;;;;;;;;;;;;;
2023/11/28 17:38:05;;;;;;;0.00;0.00;;;;;;;5.19;59.47;97557.56;5331895;26;35623;-96
2023/11/28 17:40:41;;;;;;;4.40;1.40;;;;;;;5.21;59.47;97571.25;5330826;26;20061;-96
2023/11/28 17:43:32;;;;;;;0.25;0.25;;;;;;;5.37;59.47;97567.94;5329366;26;20069;-96
2023/11/28 17:46:32;;;;;;;0.00;0.00;;;;;;;5.25;59.47;97566.78;5374424;26;20059;-96
2023/11/28 17:49:18;;;;;;;;;;;;;;;;;;;;;
2023/11/28 17:55:41;;;;;;;;;;;;;;;;;;;;;
2023/11/28 18:05:37;;;;;;;;;;;;;;;;;;;;;
2023/11/28 18:12:33;;;;;;;;;;;;;;;;;;;;;
2023/11/28 18:15:21;;;;;;;;;;;;;;;;;;;;;
2023/11/28 18:43:30;;;;;;;0.70;0.57;;;;;;;5.91;59.51;97629.09;5283132;27;20075;-95
2023/11/28 18:46:32;;;;;;;5.28;0.88;;;;;;;5.91;59.51;97643.75;5306236;27;20041;-96
2023/11/28 22:16:25;;;;;;;0.57;0.57;;;;;;;5.72;59.49;97969.84;5397181;26;20755;-93
2023/11/28 22:19:34;;;;;;;1.65;1.37;;;;;;;5.73;59.49;97963.78;5374563;26;20777;-90
2023/11/28 22:21:59;;;;;;;0.20;0.10;;;;;;;5.54;59.49;97962.84;5358996;26;20105;-91
2023/11/28 22:24:26;;;;;;;0.62;0.62;;;;;;;5.57;59.49;97964.47;5373113;26;20115;-91
2023/11/28 22:27:10;;;;;;;0.43;0.43;;;;;;;5.42;59.48;97966.75;5354622;26;20067;-90
2023/11/28 22:29:37;;;;;;;6.15;1.50;;;;;;;5.42;59.48;97964.16;5355396;26;20019;-91
2023/11/28 22:32:03;;;;;;;0.55;0.52;;;;;;;5.31;59.48;97963.75;5354781;26;20119;-90
2023/11/28 22:34:35;;;;;;;1.33;1.20;;;;;;;5.33;59.48;97959.37;5354879;26;20074;-92
2023/11/28 22:37:58;;;;;;;0.20;0.20;;;;;;;5.35;59.47;97964.47;5373880;26;20078;-91
2023/11/28 22:51:05;;;;;;;2.65;2.42;;;;;;;5.29;59.47;98016.31;5319736;27;20776;-91
2023/11/28 22:53:30;;;;;;;1.52;1.42;;;;;;;5.08;59.46;98033.44;5317137;26;20051;-91
2023/11/28 22:55:56;;;;;;;0.77;0.75;;;;;;;4.98;59.45;98032.94;5352903;26;20086;-93
2023/11/28 22:58:21;;;;;;;0.55;0.55;;;;;;;4.99;59.45;98036.38;5354311;26;20114;-90
2023/11/28 23:00:49;;;;;;;1.05;1.02;;;;;;;5.07;59.46;98040.34;5374045;26;20107;-92
2023/11/28 23:03:14;;;;;;;0.47;0.47;;;;;;;4.94;59.46;98046.81;5375174;26;20051;-92
2023/11/28 23:05:40;;;;;;;1.40;0.90;;;;;;;4.99;59.45;98051.84;5357395;26;20081;-90
2023/11/28 23:08:08;;;;;;;0.80;0.80;;;;;;;4.78;59.44;98048.31;5360099;26;20063;-93
2023/11/28 23:10:59;;;;;;;3.62;1.65;;;;;;;4.67;59.44;98040.09;5355852;26;20060;-93
2023/11/28 23:13:37;;;;;;;1.42;1.33;;;;;;;4.59;59.43;98055.84;5382760;26;20055;-94
2023/11/28 23:16:03;;;;;;;0.45;0.45;;;;;;;4.49;59.42;98051.88;5376569;26;20619;-92
2023/11/28 23:18:32;;;;;;;0.47;0.47;;;;;;;4.31;59.42;98053.38;5355797;26;20055;-92
2023/11/28 23:20:58;;;;;;;2.35;2.15;;;;;;;4.14;59.40;98053.94;5356824;26;20079;-91
2023/11/28 23:23:27;;;;;;;0.90;0.90;;;;;;;4.18;59.41;98059.81;5393250;26;20048;-93
2023/11/28 23:25:52;;;;;;;2.55;2.35;;;;;;;4.24;59.41;98073.31;5356341;26;20039;-92
2023/11/28 23:28:18;;;;;;;1.92;1.83;;;;;;;4.10;59.40;98082.41;5355010;26;20069;-93
2023/11/28 23:30:43;;;;;;;1.55;1.35;;;;;;;3.94;59.39;98103.50;5356169;26;20076;-91
2023/11/28 23:33:15;;;;;;;0.80;0.80;;;;;;;3.81;59.38;98106.50;5355453;26;20998;-93
2023/11/28 23:35:42;;;;;;;1.85;1.25;;;;;;;3.64;59.38;98109.59;5355667;26;20051;-91
2023/11/28 23:38:08;;;;;;;2.15;1.23;;;;;;;3.40;59.36;98113.75;5355390;26;20122;-92
2023/11/28 23:40:38;;;;;;;0.40;0.40;;;;;;;3.30;59.35;98136.28;5356386;26;20063;-93
2023/11/28 23:43:42;;;;;;;0.22;0.22;;;;;;;3.26;59.36;98133.84;5357708;26;20036;-92
2023/11/28 23:46:07;;;;;;;2.00;1.52;;;;;;;3.29;59.35;98128.63;5394281;26;20074;-92
2023/11/28 23:48:38;;;;;;;1.20;1.20;;;;;;;3.34;59.36;98132.78;5356678;26;20433;-92
2023/11/28 23:54:42;;;;;;;0.35;0.35;;;;;;;3.22;59.35;98140.81;5331634;26;20385;-92
2023/11/28 23:57:07;;;;;;;0.95;0.95;;;;;;;3.11;59.35;98137.72;5355970;26;20092;-91
